Time;durP1;ratioP1;P1;durP2;ratioP2;P2;SDS_P1;SDS_P2;PMS_P1;PMS_P2;Temp;Humidity;BMP_temperature;BMP_pressure;BME280_temperature;BME280_humidity;BME280_pressure;Samples;Min_cycle;Max_cycle;Signal;HPM_P1;HPM_P2
2023/09/22 00:01:00;;;;;;;1.55;1.00;;;19.20;99.90;;;-141.84;70.97;21210.31;4979651;28;20314;-61
2023/09/22 00:03:29;;;;;;;0.98;0.90;;;19.20;99.90;;;-141.84;70.50;21220.47;4982592;28;20274;-61
2023/09/22 00:05:58;;;;;;;2.47;1.15;;;19.20;99.90;;;-141.84;70.97;21167.63;4983158;28;20208;-61
2023/09/22 00:08:26;;;;;;;2.25;1.10;;;19.10;99.90;;;-141.84;71.62;21110.69;4983260;28;20311;-61
2023/09/22 00:10:56;;;;;;;3.72;1.10;;;19.00;99.90;;;-141.84;72.29;21126.97;4982778;28;20234;-60
2023/09/22 00:13:24;;;;;;;3.95;1.00;;;19.00;99.90;;;-141.84;71.55;21124.94;4978918;28;20238;-62
2023/09/22 00:15:52;;;;;;;1.13;0.90;;;18.90;99.90;;;-141.84;71.51;21145.25;4986653;28;20266;-61
2023/09/22 00:18:21;;;;;;;3.53;0.88;;;18.90;99.90;;;-141.84;71.99;21133.06;4989109;28;20239;-61
2023/09/22 00:20:49;;;;;;;1.75;0.90;;;18.90;99.90;;;-141.84;71.06;21137.13;5001022;28;20290;-61
2023/09/22 00:23:17;;;;;;;2.35;0.90;;;18.90;99.90;;;-141.84;71.10;21116.78;4979459;28;20249;-61
2023/09/22 00:25:45;;;;;;;0.95;0.70;;;18.90;99.90;;;-141.84;71.83;21135.09;4986306;28;20235;-62
2023/09/22 00:28:15;;;;;;;2.78;0.90;;;18.70;99.90;;;-141.84;71.42;21145.25;4985911;28;20734;-61
2023/09/22 00:30:44;;;;;;;1.50;0.70;;;18.80;99.90;;;-141.84;71.47;21120.88;4985777;28;20238;-61
2023/09/22 00:33:12;;;;;;;2.28;0.80;;;18.80;99.90;;;-141.84;72.04;21090.38;4978287;28;20342;-61
2023/09/22 00:35:41;;;;;;;1.35;0.80;;;18.70;99.90;;;-141.84;72.79;21041.56;4986669;28;20683;-61
2023/09/22 00:38:10;;;;;;;1.60;0.70;;;18.70;99.90;;;-141.84;72.01;21110.69;4986402;28;20503;-61
2023/09/22 00:40:38;;;;;;;1.23;0.50;;;18.70;99.90;;;-141.84;72.53;21106.63;4986062;28;20251;-62
2023/09/22 00:43:09;;;;;;;1.75;0.75;;;18.60;99.90;;;-141.84;72.42;21145.25;4978047;28;20314;-62
2023/09/22 00:45:43;;;;;;;1.25;0.68;;;18.70;99.90;;;-141.84;73.72;21070.03;4985805;28;20230;-61
2023/09/22 00:48:21;;;;;;;2.10;0.55;;;18.60;99.90;;;-141.84;73.25;21065.97;4988070;28;20261;-61
2023/09/22 00:50:52;;;;;;;0.70;0.45;;;18.60;99.90;;;-141.84;73.73;21080.19;5005466;28;20604;-61
2023/09/22 00:53:21;;;;;;;0.88;0.60;;;18.60;99.90;;;-141.84;74.32;21049.72;4998261;28;20408;-62
2023/09/22 00:55:52;;;;;;;1.85;0.75;;;18.60;99.90;;;-141.84;74.78;21002.94;4990002;28;20742;-62
2023/09/22 00:58:21;;;;;;;1.02;0.50;;;18.50;99.90;;;-141.84;74.51;21074.09;4985508;28;20285;-62
2023/09/22 01:00:52;;;;;;;0.65;0.50;;;18.40;99.90;;;-141.84;74.66;21021.25;4985971;28;20263;-62
2023/09/22 01:03:20;;;;;;;1.73;0.70;;;18.40;99.90;;;-141.84;76.19;21019.22;4978052;28;20278;-61
2023/09/22 01:05:50;;;;;;;0.98;0.65;;;18.40;99.90;;;-141.84;76.35;21011.09;4985330;28;20211;-61
2023/09/22 01:08:19;;;;;;;1.30;0.50;;;18.30;99.90;;;-141.84;76.26;20994.81;4986146;28;20290;-62
2023/09/22 01:10:47;;;;;;;2.75;0.60;;;18.30;99.90;;;-141.84;76.57;21004.97;4985974;28;20226;-61
2023/09/22 01:13:15;;;;;;;1.33;0.47;;;18.20;99.90;;;-141.84;77.37;20931.78;4978253;28;20263;-62
2023/09/22 01:15:44;;;;;;;1.63;0.52;;;18.20;99.90;;;-141.84;77.11;20960.25;4985398;28;20789;-61
2023/09/22 01:18:14;;;;;;;1.38;0.70;;;18.10;99.90;;;-141.84;78.68;20931.78;4987190;28;20234;-61
2023/09/22 01:20:43;;;;;;;1.63;0.80;;;18.10;99.90;;;-141.84;79.98;20850.47;5000997;28;20265;-62
2023/09/22 01:23:14;;;;;;;1.58;0.70;;;18.00;99.90;;;-141.84;79.53;20897.25;4978160;28;20306;-62
2023/09/22 01:25:44;;;;;;;0.75;0.55;;;17.90;99.90;;;-141.84;79.36;20874.88;4984768;28;20242;-62
2023/09/22 01:28:14;;;;;;;0.60;0.50;;;17.90;99.90;;;-141.84;80.30;20866.75;4985222;28;20326;-61
2023/09/22 01:30:42;;;;;;;2.60;0.60;;;17.80;99.90;;;-141.84;80.93;20826.09;4985003;28;20651;-61
2023/09/22 01:33:11;;;;;;;0.80;0.60;;;17.70;99.90;;;-141.84;82.24;20777.28;4977105;28;20706;-62
2023/09/22 01:35:39;;;;;;;2.05;0.93;;;17.60;99.90;;;-141.84;81.91;20773.22;4985230;28;20207;-61
2023/09/22 01:38:15;;;;;;;1.05;0.55;;;17.60;99.90;;;-141.84;83.73;20714.28;4984581;28;20270;-62
2023/09/22 01:40:44;;;;;;;1.02;0.50;;;17.50;99.90;;;-141.84;83.68;20726.47;4984646;28;20265;-62
2023/09/22 01:43:14;;;;;;;1.25;0.68;;;17.40;99.90;;;-141.84;84.23;20732.56;4977002;28;20306;-61
2023/09/22 01:45:42;;;;;;;1.17;0.60;;;17.30;99.90;;;-141.84;85.15;20667.53;4984497;28;20774;-61
2023/09/22 01:48:11;;;;;;;0.52;0.50;;;17.20;99.90;;;-141.84;86.47;20649.22;4986643;28;20278;-61
2023/09/22 01:50:41;;;;;;;2.75;0.70;;;17.10;99.90;;;-141.84;87.42;20616.69;5004432;28;20234;-61
2023/09/22 01:53:11;;;;;;;2.17;0.60;;;17.10;99.90;;;-141.84;87.29;20620.78;4996906;28;20316;-63
2023/09/22 01:55:42;;;;;;;1.10;0.73;;;17.00;99.90;;;-141.84;88.31;20574.00;4989726;28;20254;-61
2023/09/22 01:58:11;;;;;;;1.58;0.82;;;17.00;99.90;;;-141.84;88.93;20610.59;4984434;28;20330;-60
2023/09/22 02:00:40;;;;;;;2.17;0.70;;;17.00;99.90;;;-141.84;88.59;20578.09;4984491;28;20231;-61
2023/09/22 02:03:10;;;;;;;3.08;0.93;;;16.90;99.90;;;-141.84;88.52;20602.47;4976471;28;20723;-61
2023/09/22 02:05:38;;;;;;;2.92;0.85;;;16.90;99.90;;;-141.84;89.22;20594.34;4985258;28;20231;-62
2023/09/22 02:08:08;;;;;;;2.13;0.60;;;16.90;99.90;;;-141.84;89.86;20569.94;4984511;28;20722;-61
2023/09/22 02:10:36;;;;;;;1.30;0.80;;;16.80;99.90;;;-141.84;89.89;20543.53;4984361;28;20215;-61
2023/09/22 02:13:09;;;;;;;1.30;0.75;;;16.80;99.90;;;-141.84;90.18;20598.41;4977560;28;20267;-61
2023/09/22 02:15:37;;;;;;;2.08;0.82;;;16.80;99.90;;;-141.84;90.05;20588.25;4984014;28;20231;-61
2023/09/22 02:18:06;;;;;;;2.05;0.80;;;16.80;99.90;;;-141.84;90.17;20539.47;4985303;28;20314;-62
2023/09/22 02:20:35;;;;;;;1.02;0.60;;;16.80;99.90;;;-141.84;90.15;20521.16;5000456;28;20223;-61
2023/09/22 02:23:03;;;;;;;2.30;0.80;;;16.80;99.90;;;-141.84;90.46;20515.06;4976674;28;20318;-61
2023/09/22 02:25:31;;;;;;;0.90;0.75;;;16.80;99.90;;;-141.84;90.80;20517.09;4984081;28;20273;-62
2023/09/22 02:27:59;;;;;;;1.02;0.60;;;16.80;99.90;;;-141.84;91.37;20513.03;4983813;28;20242;-62
2023/09/22 02:30:29;;;;;;;2.05;0.80;;;16.80;99.90;;;-141.84;92.19;20468.31;4983997;28;20286;-61
2023/09/22 02:32:57;;;;;;;2.30;0.80;;;16.80;99.90;;;-141.84;92.24;20472.38;4983513;28;20266;-61
2023/09/22 02:35:25;;;;;;;0.93;0.60;;;16.70;99.90;;;-141.84;92.28;20456.13;4978871;28;20246;-61
2023/09/22 02:37:54;;;;;;;1.30;0.85;;;16.70;99.90;;;-141.84;91.97;20458.16;4983654;28;20241;-61
2023/09/22 02:40:22;;;;;;;2.22;0.98;;;16.70;99.90;;;-141.84;92.35;20443.91;4983745;28;20231;-61
2023/09/22 02:42:50;;;;;;;2.95;0.95;;;16.70;99.90;;;-141.84;92.90;20474.41;4983678;28;20259;-62
2023/09/22 02:45:18;;;;;;;1.90;0.90;;;16.70;99.90;;;-141.84;92.53;20456.13;4976168;28;20234;-61
2023/09/22 02:47:48;;;;;;;1.13;0.60;;;16.70;99.90;;;-141.84;92.63;20474.41;4983405;28;20218;-62
2023/09/22 02:50:18;;;;;;;1.25;0.60;;;16.70;99.90;;;-141.84;92.32;20443.91;5002758;28;20465;-62
2023/09/22 02:52:47;;;;;;;0.80;0.60;;;16.70;99.90;;;-141.84;91.93;20429.69;4990141;28;20598;-62
2023/09/22 02:55:16;;;;;;;0.85;0.70;;;16.60;99.90;;;-141.84;92.10;20411.41;4976121;28;20227;-61
2023/09/22 02:57:47;;;;;;;2.00;0.60;;;16.60;99.90;;;-141.84;92.26;20439.84;4983944;28;20227;-61
2023/09/22 03:00:20;;;;;;;1.67;0.77;;;16.50;99.90;;;-141.84;90.87;20486.59;4983132;28;20278;-61
2023/09/22 03:02:52;;;;;;;1.23;0.73;;;16.60;99.90;;;-141.84;90.09;20441.88;4983154;28;20238;-61
2023/09/22 03:05:21;;;;;;;1.98;0.80;;;16.60;99.90;;;-141.84;91.15;20423.59;4976383;28;20709;-62
2023/09/22 03:07:51;;;;;;;1.23;0.70;;;16.50;99.90;;;-141.84;92.15;20384.97;4983469;28;20262;-61
2023/09/22 03:10:19;;;;;;;1.00;0.70;;;16.50;99.90;;;-141.84;92.83;20393.09;4983139;28;20277;-61
2023/09/22 03:12:51;;;;;;;1.17;0.80;;;16.50;99.90;;;-141.84;93.45;20403.25;4983828;28;20719;-61
2023/09/22 03:15:20;;;;;;;0.68;0.68;;;16.50;99.90;;;-141.84;93.65;20391.06;4976440;28;20245;-61
2023/09/22 03:17:50;;;;;;;1.55;0.70;;;16.40;99.90;;;-141.84;94.07;20354.47;4983156;28;20207;-61
2023/09/22 03:20:19;;;;;;;1.98;0.85;;;16.40;99.90;;;-141.84;94.36;20334.16;5001835;28;20230;-61
2023/09/22 03:22:47;;;;;;;2.42;0.73;;;16.40;99.90;;;-141.84;94.29;20387.00;4983383;28;20227;-61
2023/09/22 03:25:17;;;;;;;1.40;0.70;;;16.50;99.90;;;-141.84;93.43;20378.88;4976187;28;20262;-61
2023/09/22 03:27:45;;;;;;;1.10;0.77;;;16.50;99.90;;;-141.84;93.26;20358.56;4983597;28;20755;-61
2023/09/22 03:30:13;;;;;;;0.95;0.70;;;16.50;99.90;;;-141.84;93.38;20382.94;4983138;28;20231;-62
2023/09/22 03:32:42;;;;;;;3.75;0.90;;;16.50;99.90;;;-141.84;93.78;20352.44;4983415;28;20253;-62
2023/09/22 03:35:11;;;;;;;0.80;0.60;;;16.50;99.90;;;-141.84;93.79;20370.75;4975293;28;20262;-61
2023/09/22 03:37:40;;;;;;;1.85;0.75;;;16.50;99.90;;;-141.84;93.90;20362.63;4982991;28;20234;-61
2023/09/22 03:40:13;;;;;;;1.90;0.80;;;16.50;99.90;;;-141.84;93.85;20401.22;4983127;28;20231;-61
2023/09/22 03:42:43;;;;;;;1.65;0.60;;;16.40;99.90;;;-141.84;93.72;20338.22;4983377;28;20277;-61
2023/09/22 03:45:12;;;;;;;1.52;0.70;;;16.50;99.90;;;-141.84;93.98;20354.47;4975701;28;20227;-61
2023/09/22 03:47:41;;;;;;;1.77;0.70;;;16.40;99.90;;;-141.84;93.92;20332.13;4984357;28;20215;-61
2023/09/22 03:50:12;;;;;;;0.88;0.60;;;16.40;99.90;;;-141.84;93.01;20378.88;5003105;28;20222;-62
2023/09/22 03:52:43;;;;;;;0.85;0.60;;;16.40;99.90;;;-141.84;92.44;20370.75;5006163;28;20234;-61
2023/09/22 03:55:13;;;;;;;0.70;0.63;;;16.40;99.90;;;-141.84;92.60;20352.44;4988518;28;20230;-62
2023/09/22 03:57:42;;;;;;;0.88;0.68;;;16.40;99.90;;;-141.84;92.31;20326.03;4986946;28;20777;-61
2023/09/22 04:00:18;;;;;;;1.75;0.93;;;16.40;99.90;;;-141.84;91.98;20397.16;4986752;28;20246;-62
2023/09/22 04:02:47;;;;;;;1.20;0.70;;;16.40;99.90;;;-141.84;91.89;20354.47;4986454;28;20297;-63
2023/09/22 04:05:18;;;;;;;0.70;0.63;;;16.30;99.90;;;-141.84;90.75;20364.66;4979539;28;20745;-61
2023/09/22 04:07:47;;;;;;;1.20;0.95;;;16.30;99.90;;;-141.84;90.03;20387.00;4986330;28;20231;-62
2023/09/22 04:10:16;;;;;;;1.50;0.90;;;16.40;99.90;;;-141.84;90.76;20354.47;4986489;28;20230;-62
2023/09/22 04:12:45;;;;;;;1.83;0.80;;;16.40;99.90;;;-141.84;91.20;20358.56;4986487;28;20790;-62
2023/09/22 04:15:15;;;;;;;1.83;0.80;;;16.30;99.90;;;-141.84;90.88;20354.47;4979057;28;20694;-62
2023/09/22 04:17:45;;;;;;;0.70;0.70;;;16.30;99.90;;;-141.84;90.27;20370.75;4986736;28;20211;-62
2023/09/22 04:20:17;;;;;;;1.08;0.70;;;16.30;99.90;;;-141.84;89.90;20360.59;5004596;28;20242;-62
2023/09/22 04:22:47;;;;;;;1.08;0.70;;;16.30;99.90;;;-141.84;89.71;20397.16;4986396;28;20257;-63
2023/09/22 04:25:19;;;;;;;0.95;0.73;;;16.30;99.90;;;-141.84;88.22;20403.25;4978555;28;20237;-61
2023/09/22 04:27:54;;;;;;;1.15;0.98;;;16.40;99.90;;;-141.84;87.82;20435.78;4986304;28;20231;-60
2023/09/22 04:30:24;;;;;;;2.10;0.70;;;16.40;99.90;;;-141.84;88.44;20387.00;4986076;28;20593;-61
2023/09/22 04:32:54;;;;;;;1.00;0.70;;;16.40;99.90;;;-141.84;88.96;20429.69;4986104;28;20211;-62
2023/09/22 04:35:24;;;;;;;0.85;0.80;;;16.40;99.90;;;-141.84;88.61;20431.72;4978010;28;20212;-62
2023/09/22 04:37:53;;;;;;;1.15;0.95;;;16.40;99.90;;;-141.84;88.41;20435.78;4985578;28;20231;-63
2023/09/22 04:40:24;;;;;;;2.03;0.70;;;16.40;99.90;;;-141.84;87.21;20439.84;4986062;28;20239;-63
2023/09/22 04:42:54;;;;;;;2.40;0.80;;;16.40;99.90;;;-141.84;86.50;20437.81;4985811;28;20311;-61
2023/09/22 04:45:23;;;;;;;0.90;0.90;;;16.50;99.90;;;-141.84;87.19;20433.75;4977577;28;20606;-62
2023/09/22 04:47:52;;;;;;;2.30;0.90;;;16.50;99.90;;;-141.84;87.95;20429.69;4985281;28;20207;-61
2023/09/22 04:50:21;;;;;;;2.05;0.80;;;16.50;99.90;;;-141.84;86.54;20454.09;4984633;28;20219;-63
2023/09/22 04:52:50;;;;;;;1.77;0.90;;;16.50;99.90;;;-141.84;85.72;20460.19;4985653;28;20605;-62
2023/09/22 04:55:21;;;;;;;1.88;0.77;;;16.60;99.90;;;-141.84;87.30;20411.41;4977651;28;20298;-63
2023/09/22 04:57:49;;;;;;;0.85;0.80;;;16.50;99.90;;;-141.84;87.11;20401.22;4985398;28;20313;-62
2023/09/22 05:00:21;;;;;;;1.27;0.73;;;16.50;99.90;;;-141.84;87.64;20409.38;4984530;28;20224;-62
2023/09/22 05:02:51;;;;;;;0.85;0.80;;;16.50;99.90;;;-141.84;86.22;20435.78;4985764;28;20207;-61
2023/09/22 05:05:22;;;;;;;1.38;1.00;;;16.50;99.90;;;-141.84;85.79;20429.69;4978001;28;20713;-62
2023/09/22 05:07:53;;;;;;;1.08;0.95;;;16.50;99.90;;;-141.84;86.96;20399.19;4985331;28;20231;-62
2023/09/22 05:10:23;;;;;;;0.90;0.80;;;16.50;99.90;;;-141.84;88.07;20405.31;4985535;28;20247;-62
2023/09/22 05:12:52;;;;;;;0.85;0.80;;;16.50;99.90;;;-141.84;88.87;20382.94;4985182;28;20285;-61
2023/09/22 05:15:21;;;;;;;1.45;1.00;;;16.50;99.90;;;-141.84;89.09;20368.72;4978215;28;20564;-62
2023/09/22 05:17:49;;;;;;;2.88;1.10;;;16.50;99.90;;;-141.84;89.06;20364.66;4985044;28;20214;-63
2023/09/22 05:20:20;;;;;;;2.92;1.15;;;16.40;99.90;;;-141.84;89.32;20425.63;4985480;28;20289;-61
2023/09/22 05:22:48;;;;;;;1.65;0.82;;;16.40;99.90;;;-141.84;89.16;20395.13;4985071;28;20326;-60
2023/09/22 05:25:16;;;;;;;1.38;0.98;;;16.40;99.90;;;-141.84;89.44;20368.72;4977275;28;20789;-62
2023/09/22 05:27:47;;;;;;;1.00;0.80;;;16.40;99.90;;;-141.84;89.84;20360.59;4984247;28;20231;-62
2023/09/22 05:30:16;;;;;;;1.08;0.90;;;16.40;99.90;;;-141.84;90.32;20362.63;4984762;28;20284;-61
2023/09/22 05:32:45;;;;;;;1.20;1.00;;;16.30;99.90;;;-141.84;90.50;20324.00;4985573;28;20239;-62
2023/09/22 05:35:14;;;;;;;3.80;1.38;;;16.40;99.90;;;-141.84;89.80;20362.63;4977085;28;20263;-62
2023/09/22 05:37:42;;;;;;;2.22;1.00;;;16.30;99.90;;;-141.84;89.34;20376.84;4984528;28;20602;-62
2023/09/22 05:40:12;;;;;;;1.45;0.93;;;16.30;99.90;;;-141.84;89.04;20358.56;4984844;28;20238;-63
2023/09/22 05:42:42;;;;;;;1.58;1.05;;;16.30;99.90;;;-141.84;88.54;20423.59;4965194;28;20258;-63
2023/09/22 05:45:13;;;;;;;3.03;1.30;;;16.30;99.90;;;-141.84;86.07;20399.19;4957400;28;20935;-63
2023/09/22 05:47:41;;;;;;;1.20;1.10;;;16.40;99.90;;;-141.84;86.06;20391.06;4966808;28;20231;-61
2023/09/22 05:50:12;;;;;;;3.47;1.23;;;16.40;99.90;;;-141.84;87.10;20372.78;4984451;28;20239;-63
2023/09/22 05:52:40;;;;;;;1.65;1.02;;;16.40;99.90;;;-141.84;87.99;20387.00;4984474;28;20231;-62
2023/09/22 05:55:12;;;;;;;4.15;1.23;;;16.40;99.90;;;-141.84;88.27;20393.09;4966832;28;20655;-62
2023/09/22 05:57:41;;;;;;;2.97;0.90;;;16.40;99.90;;;-141.84;88.57;20407.34;4965370;28;20232;-62
2023/09/22 06:00:16;;;;;;;1.70;1.00;;;16.40;99.90;;;-141.84;89.31;20387.00;4965353;28;20236;-62
2023/09/22 06:02:52;;;;;;;2.17;1.38;;;16.40;99.90;;;-141.84;89.44;20401.22;4965636;28;20601;-62
2023/09/22 06:05:22;;;;;;;2.35;1.00;;;16.50;99.90;;;-141.84;89.77;20356.50;4957710;28;20307;-61
2023/09/22 06:07:51;;;;;;;1.90;1.08;;;16.50;99.90;;;-141.84;89.90;20356.50;4964871;28;20232;-62
2023/09/22 06:10:19;;;;;;;2.70;1.20;;;16.50;99.90;;;-141.84;89.63;20336.19;4966735;28;20716;-64
2023/09/22 06:12:47;;;;;;;1.55;1.10;;;16.50;99.90;;;-141.84;89.59;20376.84;4984182;28;20258;-62
2023/09/22 06:15:17;;;;;;;1.55;1.20;;;16.50;99.90;;;-141.84;86.67;20437.81;4976862;28;20239;-63
2023/09/22 06:17:48;;;;;;;1.63;1.15;;;16.60;99.90;;;-141.84;87.12;20445.94;4984300;28;20266;-63
2023/09/22 06:20:16;;;;;;;1.73;1.10;;;16.60;99.90;;;-141.84;87.03;20458.16;4984422;28;20222;-62
2023/09/22 06:22:47;;;;;;;2.10;1.48;;;16.70;99.90;;;-141.84;87.72;20411.41;4983746;28;20242;-62
2023/09/22 06:25:16;;;;;;;2.80;1.45;;;16.70;99.90;;;-141.84;87.48;20423.59;4976267;28;20240;-63
2023/09/22 06:27:44;;;;;;;2.22;1.40;;;16.70;99.90;;;-141.84;87.21;20506.94;4984579;28;20284;-62
2023/09/22 06:30:13;;;;;;;1.90;1.50;;;16.70;99.90;;;-141.84;87.60;20435.78;4983641;28;20366;-62
2023/09/22 06:32:45;;;;;;;4.68;1.30;;;16.80;99.90;;;-141.84;88.41;20425.63;4983210;28;20214;-63
2023/09/22 06:35:14;;;;;;;2.65;1.52;;;16.80;99.90;;;-141.84;88.98;20421.56;4975893;28;20310;-63
2023/09/22 06:37:43;;;;;;;2.15;1.60;;;16.80;99.90;;;-141.84;88.84;20447.97;4983290;28;20254;-63
2023/09/22 06:40:12;;;;;;;2.08;1.65;;;16.90;99.90;;;-141.84;88.31;20472.38;4983031;28;20258;-62
2023/09/22 06:42:44;;;;;;;4.18;1.55;;;16.90;99.90;;;-141.84;88.33;20454.09;4983569;28;20718;-62
2023/09/22 06:45:16;;;;;;;5.75;1.85;;;16.90;99.90;;;-141.84;88.01;20447.97;4975816;28;20231;-62
2023/09/22 06:47:46;;;;;;;3.38;1.45;;;16.90;99.90;;;-141.84;87.09;20474.41;4984036;28;20203;-63
2023/09/22 06:50:14;;;;;;;1.75;1.42;;;17.00;99.90;;;-141.84;86.37;20498.81;4983812;28;20725;-62
2023/09/22 06:52:43;;;;;;;1.83;1.27;;;17.00;99.90;;;-141.84;86.02;20492.72;4983644;28;20235;-62
2023/09/22 06:55:13;;;;;;;2.30;1.20;;;17.10;99.90;;;-141.84;84.70;20545.56;4965609;28;20317;-63
2023/09/22 06:57:42;;;;;;;2.65;1.40;;;17.10;99.90;;;-141.84;84.01;20551.66;4964354;28;20294;-62
2023/09/22 07:00:18;;;;;;;2.25;1.50;;;17.20;99.90;;;-141.84;83.34;20614.66;4963710;28;20235;-62
2023/09/22 07:02:49;;;;;;;2.72;1.45;;;17.30;99.90;;;-141.84;83.41;20590.28;4964197;28;20313;-62
2023/09/22 07:05:19;;;;;;;2.70;1.35;;;17.30;99.90;;;-141.84;84.20;20547.59;4956663;28;20208;-61
2023/09/22 07:07:49;;;;;;;4.50;1.98;;;17.30;99.90;;;-141.84;84.65;20561.81;4963775;28;20231;-63
2023/09/22 07:10:18;;;;;;;2.88;1.35;;;17.30;99.90;;;-141.84;84.59;20525.22;4966054;28;20239;-63
2023/09/22 07:12:46;;;;;;;3.65;1.50;;;17.40;99.90;;;-141.84;84.77;20529.28;4983230;28;20652;-63
2023/09/22 07:15:15;;;;;;;2.58;1.40;;;17.30;99.90;;;-141.84;83.41;20565.88;4975891;28;20231;-62
2023/09/22 07:17:44;;;;;;;2.85;1.50;;;17.40;99.90;;;-141.84;83.50;20590.28;4983109;28;20818;-62
2023/09/22 07:20:14;;;;;;;2.30;1.40;;;17.30;99.90;;;-141.84;83.70;20557.75;4983576;28;20306;-63
2023/09/22 07:22:44;;;;;;;3.60;1.60;;;17.30;99.90;;;-141.84;82.47;20582.16;4982859;28;20227;-63
2023/09/22 07:25:14;;;;;;;2.85;2.33;;;17.30;99.90;;;-141.84;81.38;20637.03;4975509;28;20718;-62
2023/09/22 07:27:45;;;;;;;2.88;1.40;;;17.30;99.90;;;-141.84;81.71;20618.72;4983767;28;20231;-64
2023/09/22 07:30:14;;;;;;;1.40;1.30;;;17.30;99.90;;;-141.84;82.39;20578.09;4983072;28;20235;-63
2023/09/22 07:32:44;;;;;;;2.17;1.33;;;17.40;99.90;;;-141.84;82.28;20594.34;4983641;28;20203;-62
2023/09/22 07:35:14;;;;;;;1.80;1.20;;;17.40;99.90;;;-141.84;80.65;20622.81;4956738;28;20224;-63
2023/09/22 07:37:44;;;;;;;1.65;1.27;;;17.40;99.90;;;-141.84;81.14;20610.59;4965182;28;20323;-63
2023/09/22 07:40:13;;;;;;;1.98;1.30;;;17.40;99.90;;;-141.84;82.00;20582.16;4965200;28;20231;-63
2023/09/22 07:42:41;;;;;;;2.03;1.40;;;17.50;99.90;;;-141.84;82.79;20588.25;4963291;28;20306;-63
2023/09/22 07:45:12;;;;;;;3.83;1.42;;;17.50;99.90;;;-141.84;82.90;20578.09;4975462;28;20239;-64
2023/09/22 07:47:40;;;;;;;2.20;1.42;;;17.50;99.90;;;-141.84;82.68;20586.22;4981212;28;20239;-64
2023/09/22 07:50:09;;;;;;;2.72;1.55;;;17.50;99.90;;;-141.84;77.99;20708.19;4982007;28;20227;-61
2023/09/22 07:52:42;;;;;;;1.75;1.27;;;17.60;99.90;;;-141.84;79.07;20651.25;4973314;28;20318;-63
2023/09/22 07:55:14;;;;;;;2.25;1.35;;;17.50;99.90;;;-141.84;80.94;20547.59;4972514;28;20758;-63
2023/09/22 07:57:46;;;;;;;1.83;1.20;;;17.40;99.90;;;-141.84;81.82;20578.09;4982109;28;20226;-62
2023/09/22 08:00:18;;;;;;;2.25;1.60;;;17.40;99.90;;;-141.84;80.48;20618.72;4973294;28;20258;-62
2023/09/22 08:02:49;;;;;;;3.42;1.50;;;17.40;99.90;;;-141.84;81.26;20645.16;4982274;28;20230;-61
2023/09/22 08:05:18;;;;;;;2.25;1.80;;;17.50;99.90;;;-141.84;81.34;20663.47;4973227;28;20236;-62
2023/09/22 08:07:50;;;;;;;3.05;1.38;;;17.60;99.90;;;-141.84;79.36;20732.56;4968216;28;20265;-63
2023/09/22 08:10:18;;;;;;;4.38;1.80;;;17.60;99.90;;;-141.84;78.95;20726.47;4982068;28;20301;-62
2023/09/22 08:12:47;;;;;;;2.28;1.80;;;17.60;99.90;;;-141.84;78.61;20740.69;4969861;28;20318;-60
2023/09/22 08:15:16;;;;;;;2.83;1.40;;;17.60;99.90;;;-141.84;78.31;20746.81;4974365;28;20204;-59
2023/09/22 08:17:47;;;;;;;2.05;1.40;;;17.70;99.90;;;-141.84;78.06;20756.97;4980466;28;20215;-63
2023/09/22 08:20:16;;;;;;;1.73;1.40;;;17.80;99.90;;;-141.84;78.21;20710.22;4980248;28;20231;-62
2023/09/22 08:22:47;;;;;;;3.53;1.58;;;17.80;99.90;;;-141.84;77.84;20716.31;4979590;28;20631;-64
2023/09/22 08:25:20;;;;;;;2.70;1.52;;;17.80;99.90;;;-141.84;76.78;20793.56;4974144;28;20249;-65
2023/09/22 08:27:52;;;;;;;2.63;2.42;;;17.80;99.90;;;-141.84;76.86;20740.69;4969747;28;20265;-61
2023/09/22 08:30:21;;;;;;;2.33;1.20;;;17.80;99.90;;;-141.84;77.61;20734.59;4972268;28;20236;-61
2023/09/22 08:32:49;;;;;;;2.78;1.38;;;17.70;99.90;;;-141.84;77.65;20714.28;4966512;28;20618;-62
2023/09/22 08:35:17;;;;;;;1.30;1.10;;;17.70;99.90;;;-141.84;77.62;20742.75;4976185;28;20294;-61
2023/09/22 08:37:46;;;;;;;3.03;1.20;;;17.60;99.90;;;-141.84;78.22;20718.34;4985546;28;20254;-62
2023/09/22 08:40:18;;;;;;;2.30;1.33;;;17.60;99.90;;;-141.84;78.52;20685.81;4973825;28;20270;-60
2023/09/22 08:42:51;;;;;;;1.20;1.10;;;17.60;99.90;;;-141.84;79.21;20681.75;4985216;28;20285;-61
2023/09/22 08:45:22;;;;;;;2.60;1.20;;;17.60;99.90;;;-141.84;78.13;20700.03;4974821;28;20277;-61
2023/09/22 08:47:51;;;;;;;2.47;1.40;;;17.60;99.90;;;-141.84;77.38;20704.13;4985110;28;20218;-61
2023/09/22 08:50:21;;;;;;;3.33;1.38;;;17.70;99.90;;;-141.84;78.25;20693.94;4984518;28;20235;-62
2023/09/22 08:52:52;;;;;;;2.00;1.20;;;17.60;99.90;;;-141.84;78.65;20639.06;4985009;28;20269;-60
2023/09/22 08:55:23;;;;;;;2.38;1.00;;;17.70;99.90;;;-141.84;76.43;20724.44;4965795;28;20789;-61
2023/09/22 08:57:53;;;;;;;1.52;1.23;;;17.70;99.90;;;-141.84;76.56;20785.44;4984882;28;20231;-60
2023/09/22 09:00:26;;;;;;;2.17;1.20;;;17.70;99.90;;;-141.84;75.17;20807.78;4982322;28;20301;-62
2023/09/22 09:02:58;;;;;;;1.58;1.25;;;17.70;99.90;;;-141.84;75.93;20756.97;4973844;28;20289;-61
2023/09/22 09:05:29;;;;;;;3.17;1.38;;;17.60;99.90;;;-141.84;75.51;20744.78;4975858;28;20714;-61
2023/09/22 09:08:12;;;;;;;2.13;1.30;;;17.70;99.90;;;-141.84;75.56;20716.31;4972704;28;20231;-62
2023/09/22 09:10:44;;;;;;;2.78;1.00;;;17.60;99.90;;;-141.84;75.70;20744.78;4977095;28;20232;-61
2023/09/22 09:13:15;;;;;;;1.40;1.15;;;17.60;99.90;;;-141.84;75.93;20704.13;4962951;28;20729;-62
2023/09/22 09:15:47;;;;;;;2.33;1.20;;;17.60;99.90;;;-141.84;75.85;20754.94;4984224;28;20231;-61
2023/09/22 09:18:19;;;;;;;1.30;1.20;;;17.50;99.90;;;-141.84;73.54;20820.00;4984438;28;20222;-60
2023/09/22 09:20:49;;;;;;;1.70;1.10;;;17.50;99.90;;;-141.84;73.80;20771.19;4984674;28;20207;-60
2023/09/22 09:23:19;;;;;;;0.88;0.88;;;17.50;99.90;;;-141.84;75.24;20803.72;4960748;28;20232;-61
2023/09/22 09:25:54;;;;;;;1.30;1.20;;;17.50;99.90;;;-141.84;73.41;20797.63;4979169;28;20571;-61
2023/09/22 09:28:25;;;;;;;2.13;1.27;;;17.50;99.90;;;-141.84;72.80;20828.13;4983791;28;20293;-63
2023/09/22 09:30:55;;;;;;;2.55;1.25;;;17.70;99.90;;;-141.84;73.34;20801.69;4983953;28;20606;-62
2023/09/22 09:33:26;;;;;;;2.78;1.10;;;17.60;99.90;;;-141.84;73.45;20830.16;4976124;28;20282;-62
2023/09/22 09:35:55;;;;;;;1.58;1.05;;;17.70;99.90;;;-141.84;73.62;20801.69;4984041;28;20239;-60
2023/09/22 09:38:28;;;;;;;2.33;1.13;;;17.80;99.90;;;-141.84;71.71;20878.94;4976390;28;20310;-62
2023/09/22 09:40:59;;;;;;;2.72;1.20;;;17.90;99.90;;;-141.84;70.86;20931.78;4982308;28;20591;-61
2023/09/22 09:43:27;;;;;;;3.33;2.40;;;18.00;99.90;;;-141.84;68.31;21017.19;4976532;28;20270;-61
2023/09/22 09:45:57;;;;;;;1.83;1.20;;;18.10;99.90;;;-141.84;67.14;21047.69;4974736;28;20373;-61
2023/09/22 09:48:28;;;;;;;3.17;1.02;;;18.20;99.90;;;-141.84;66.72;21126.97;4981842;28;20277;-65
2023/09/22 09:50:59;;;;;;;1.83;1.30;;;18.40;99.90;;;-141.84;65.92;21183.88;4983953;28;20215;-66
2023/09/22 09:53:38;;;;;;;1.25;1.00;;;18.50;99.90;;;-141.84;64.29;21165.59;4974244;28;20228;-66
2023/09/22 09:56:13;;;;;;;3.97;1.20;;;18.60;99.90;;;-141.84;64.39;21179.81;4981057;28;20297;-66
2023/09/22 09:58:42;;;;;;;1.77;1.20;;;18.60;99.90;;;-141.84;66.05;21161.53;4983550;28;20227;-69
2023/09/22 10:01:11;;;;;;;2.47;1.15;;;18.60;99.90;;;-141.84;65.77;21167.63;4974325;28;20227;-66
2023/09/22 10:03:42;;;;;;;1.13;0.90;;;18.40;99.90;;;-141.84;65.48;21106.63;4977710;28;20243;-68
2023/09/22 10:06:16;;;;;;;3.80;1.00;;;18.60;99.90;;;-141.84;66.72;21092.41;4983463;28;20217;-61
2023/09/22 10:08:44;;;;;;;1.20;1.00;;;18.50;99.90;;;-141.84;66.39;21110.69;4983755;28;20211;-61
2023/09/22 10:11:16;;;;;;;1.70;1.30;;;18.50;99.90;;;-141.84;65.46;21163.56;4976630;28;20231;-60
2023/09/22 10:13:46;;;;;;;2.33;1.30;;;18.50;99.90;;;-141.84;66.79;21106.63;4972057;28;20715;-62
2023/09/22 10:16:29;;;;;;;2.22;1.60;;;18.50;99.90;;;-141.84;65.77;21120.88;4982764;28;20254;-62